You know it is late January in Sweden when….

SA 261520Z 35007KT 6000 -SN BR FEW002 BKN003 01/00 Q1009 RWY 01
WET 51-100 PCT LESS THAN 1 MM FC 0.76 RWY 08 WET 51-100 PCT
LESS THAN 1 M
M 26 0.73 RWY 01R WET 51-100 PCT LESS THAN 1 MM FC 0.78
TEMPO 2000 BKN005=

Advertisements

Leave a Reply

Fill in your details below or click an icon to log in:

WordPress.com Logo

You are commenting using your WordPress.com account. Log Out / Change )

Twitter picture

You are commenting using your Twitter account. Log Out / Change )

Facebook photo

You are commenting using your Facebook account. Log Out / Change )

Google+ photo

You are commenting using your Google+ account. Log Out / Change )

Connecting to %s

%d bloggers like this: